sensor_id;sensor_type;location;lat;lon;timestamp;P1;durP1;ratioP1;P2;durP2;ratioP2
59728;SDS011;45588;51.598;5.618;2023-11-21T00:00:35;29.98;;;12.93;;
59728;SDS011;45588;51.598;5.618;2023-11-21T00:03:01;28.17;;;13.88;;
59728;SDS011;45588;51.598;5.618;2023-11-21T00:05:27;31.45;;;13.68;;
59728;SDS011;45588;51.598;5.618;2023-11-21T00:07:52;27.43;;;12.20;;
59728;SDS011;45588;51.598;5.618;2023-11-21T00:10:17;32.72;;;14.13;;
59728;SDS011;45588;51.598;5.618;2023-11-21T00:12:42;26.25;;;12.73;;
59728;SDS011;45588;51.598;5.618;2023-11-21T00:15:08;26.33;;;13.50;;
59728;SDS011;45588;51.598;5.618;2023-11-21T00:17:36;31.90;;;14.18;;
59728;SDS011;45588;51.598;5.618;2023-11-21T00:20:01;37.35;;;14.35;;
59728;SDS011;45588;51.598;5.618;2023-11-21T00:22:29;26.20;;;12.27;;
59728;SDS011;45588;51.598;5.618;2023-11-21T00:24:54;22.83;;;12.48;;
59728;SDS011;45588;51.598;5.618;2023-11-21T00:27:19;24.30;;;13.57;;
59728;SDS011;45588;51.598;5.618;2023-11-21T00:29:45;22.55;;;11.30;;
59728;SDS011;45588;51.598;5.618;2023-11-21T00:32:10;22.00;;;11.53;;
59728;SDS011;45588;51.598;5.618;2023-11-21T00:34:35;24.77;;;13.07;;
59728;SDS011;45588;51.598;5.618;2023-11-21T00:37:00;21.20;;;11.60;;
59728;SDS011;45588;51.598;5.618;2023-11-21T00:39:26;26.27;;;13.47;;
59728;SDS011;45588;51.598;5.618;2023-11-21T00:41:51;24.25;;;13.00;;
59728;SDS011;45588;51.598;5.618;2023-11-21T00:44:17;27.50;;;13.73;;
59728;SDS011;45588;51.598;5.618;2023-11-21T00:46:42;32.50;;;12.83;;
59728;SDS011;45588;51.598;5.618;2023-11-21T00:49:07;27.90;;;13.10;;
59728;SDS011;45588;51.598;5.618;2023-11-21T00:51:32;30.65;;;13.25;;
59728;SDS011;45588;51.598;5.618;2023-11-21T00:53:58;27.52;;;12.93;;
59728;SDS011;45588;51.598;5.618;2023-11-21T00:56:23;24.20;;;13.00;;
59728;SDS011;45588;51.598;5.618;2023-11-21T00:58:49;25.93;;;13.77;;
59728;SDS011;45588;51.598;5.618;2023-11-21T01:01:16;24.50;;;13.70;;
59728;SDS011;45588;51.598;5.618;2023-11-21T01:03:41;21.25;;;12.88;;
59728;SDS011;45588;51.598;5.618;2023-11-21T01:06:06;24.48;;;13.48;;
59728;SDS011;45588;51.598;5.618;2023-11-21T01:08:32;30.88;;;12.98;;
59728;SDS011;45588;51.598;5.618;2023-11-21T01:10:57;23.30;;;12.13;;
59728;SDS011;45588;51.598;5.618;2023-11-21T01:13:22;28.17;;;13.87;;
59728;SDS011;45588;51.598;5.618;2023-11-21T01:15:47;24.27;;;13.07;;
59728;SDS011;45588;51.598;5.618;2023-11-21T01:18:12;28.42;;;12.77;;
59728;SDS011;45588;51.598;5.618;2023-11-21T01:20:38;29.77;;;14.40;;
59728;SDS011;45588;51.598;5.618;2023-11-21T01:23:03;24.20;;;13.20;;
59728;SDS011;45588;51.598;5.618;2023-11-21T01:25:28;46.90;;;14.52;;
59728;SDS011;45588;51.598;5.618;2023-11-21T01:27:53;30.13;;;11.67;;
59728;SDS011;45588;51.598;5.618;2023-11-21T01:30:18;20.17;;;9.57;;
59728;SDS011;45588;51.598;5.618;2023-11-21T01:32:44;23.98;;;12.40;;
59728;SDS011;45588;51.598;5.618;2023-11-21T01:35:09;21.17;;;12.98;;
59728;SDS011;45588;51.598;5.618;2023-11-21T01:37:35;28.08;;;13.20;;
59728;SDS011;45588;51.598;5.618;2023-11-21T01:40:00;24.88;;;14.02;;
59728;SDS011;45588;51.598;5.618;2023-11-21T01:42:27;25.13;;;13.02;;
59728;SDS011;45588;51.598;5.618;2023-11-21T01:44:54;26.13;;;12.88;;
59728;SDS011;45588;51.598;5.618;2023-11-21T01:47:19;26.80;;;13.85;;
59728;SDS011;45588;51.598;5.618;2023-11-21T01:49:46;23.15;;;11.85;;
59728;SDS011;45588;51.598;5.618;2023-11-21T01:52:12;23.58;;;12.75;;
59728;SDS011;45588;51.598;5.618;2023-11-21T01:54:37;21.33;;;11.40;;
59728;SDS011;45588;51.598;5.618;2023-11-21T01:57:03;21.15;;;11.13;;
59728;SDS011;45588;51.598;5.618;2023-11-21T01:59:34;20.77;;;13.48;;
59728;SDS011;45588;51.598;5.618;2023-11-21T02:01:59;21.75;;;12.38;;
59728;SDS011;45588;51.598;5.618;2023-11-21T02:04:24;24.73;;;12.30;;
59728;SDS011;45588;51.598;5.618;2023-11-21T02:06:50;26.98;;;12.40;;
59728;SDS011;45588;51.598;5.618;2023-11-21T02:09:15;39.05;;;13.02;;
59728;SDS011;45588;51.598;5.618;2023-11-21T02:11:41;35.65;;;12.15;;
59728;SDS011;45588;51.598;5.618;2023-11-21T02:14:06;34.53;;;13.67;;
59728;SDS011;45588;51.598;5.618;2023-11-21T02:16:33;35.58;;;14.73;;
59728;SDS011;45588;51.598;5.618;2023-11-21T02:18:59;82.53;;;16.83;;
59728;SDS011;45588;51.598;5.618;2023-11-21T02:21:24;51.38;;;14.93;;
59728;SDS011;45588;51.598;5.618;2023-11-21T02:23:50;30.45;;;14.00;;
59728;SDS011;45588;51.598;5.618;2023-11-21T02:26:16;37.58;;;14.82;;
59728;SDS011;45588;51.598;5.618;2023-11-21T02:28:41;47.15;;;13.80;;
59728;SDS011;45588;51.598;5.618;2023-11-21T02:31:07;44.80;;;13.85;;
59728;SDS011;45588;51.598;5.618;2023-11-21T02:33:32;77.90;;;15.63;;
59728;SDS011;45588;51.598;5.618;2023-11-21T02:35:59;67.85;;;15.35;;
59728;SDS011;45588;51.598;5.618;2023-11-21T02:38:24;54.72;;;16.00;;
59728;SDS011;45588;51.598;5.618;2023-11-21T02:40:49;49.35;;;14.57;;
59728;SDS011;45588;51.598;5.618;2023-11-21T02:43:15;66.13;;;15.30;;
59728;SDS011;45588;51.598;5.618;2023-11-21T02:45:40;59.35;;;16.70;;
59728;SDS011;45588;51.598;5.618;2023-11-21T02:48:06;61.60;;;14.88;;
59728;SDS011;45588;51.598;5.618;2023-11-21T02:50:31;69.03;;;16.47;;
59728;SDS011;45588;51.598;5.618;2023-11-21T02:52:57;48.00;;;14.23;;
59728;SDS011;45588;51.598;5.618;2023-11-21T02:55:22;41.45;;;13.50;;
59728;SDS011;45588;51.598;5.618;2023-11-21T02:57:49;39.33;;;14.55;;
59728;SDS011;45588;51.598;5.618;2023-11-21T03:00:15;48.70;;;15.30;;
59728;SDS011;45588;51.598;5.618;2023-11-21T03:02:41;56.80;;;14.80;;
59728;SDS011;45588;51.598;5.618;2023-11-21T03:05:07;54.78;;;15.20;;
59728;SDS011;45588;51.598;5.618;2023-11-21T03:07:33;64.63;;;16.40;;
59728;SDS011;45588;51.598;5.618;2023-11-21T03:09:59;29.45;;;14.70;;
59728;SDS011;45588;51.598;5.618;2023-11-21T03:12:24;56.60;;;16.00;;
59728;SDS011;45588;51.598;5.618;2023-11-21T03:14:49;57.33;;;15.73;;
59728;SDS011;45588;51.598;5.618;2023-11-21T03:17:14;51.40;;;15.90;;
59728;SDS011;45588;51.598;5.618;2023-11-21T03:19:41;41.47;;;14.98;;
59728;SDS011;45588;51.598;5.618;2023-11-21T03:22:06;53.92;;;15.77;;
59728;SDS011;45588;51.598;5.618;2023-11-21T03:24:31;35.20;;;14.37;;
59728;SDS011;45588;51.598;5.618;2023-11-21T03:26:56;29.77;;;13.87;;
59728;SDS011;45588;51.598;5.618;2023-11-21T03:29:21;35.87;;;14.80;;
59728;SDS011;45588;51.598;5.618;2023-11-21T03:31:46;45.20;;;14.60;;
59728;SDS011;45588;51.598;5.618;2023-11-21T03:34:16;31.63;;;12.97;;
59728;SDS011;45588;51.598;5.618;2023-11-21T03:36:41;27.30;;;14.25;;
59728;SDS011;45588;51.598;5.618;2023-11-21T03:39:06;24.88;;;12.27;;
59728;SDS011;45588;51.598;5.618;2023-11-21T03:41:32;33.70;;;12.77;;
59728;SDS011;45588;51.598;5.618;2023-11-21T03:43:57;28.25;;;14.23;;
59728;SDS011;45588;51.598;5.618;2023-11-21T03:46:22;25.67;;;13.17;;
59728;SDS011;45588;51.598;5.618;2023-11-21T03:48:47;39.20;;;13.73;;
59728;SDS011;45588;51.598;5.618;2023-11-21T03:51:12;29.90;;;14.83;;
59728;SDS011;45588;51.598;5.618;2023-11-21T03:53:37;41.35;;;14.40;;
59728;SDS011;45588;51.598;5.618;2023-11-21T03:56:03;37.77;;;13.77;;
59728;SDS011;45588;51.598;5.618;2023-11-21T03:58:29;35.10;;;14.68;;
59728;SDS011;45588;51.598;5.618;2023-11-21T04:00:54;35.83;;;14.43;;
59728;SDS011;45588;51.598;5.618;2023-11-21T04:03:19;32.80;;;14.37;;
59728;SDS011;45588;51.598;5.618;2023-11-21T04:05:45;26.63;;;15.27;;
59728;SDS011;45588;51.598;5.618;2023-11-21T04:08:10;32.50;;;15.02;;
59728;SDS011;45588;51.598;5.618;2023-11-21T04:10:36;27.70;;;13.30;;
59728;SDS011;45588;51.598;5.618;2023-11-21T04:13:01;31.67;;;14.68;;
59728;SDS011;45588;51.598;5.618;2023-11-21T04:15:26;26.25;;;13.35;;
59728;SDS011;45588;51.598;5.618;2023-11-21T04:17:52;38.38;;;15.05;;
59728;SDS011;45588;51.598;5.618;2023-11-21T04:20:17;50.20;;;15.23;;
59728;SDS011;45588;51.598;5.618;2023-11-21T04:22:43;37.20;;;15.15;;
59728;SDS011;45588;51.598;5.618;2023-11-21T04:25:11;40.95;;;13.73;;
59728;SDS011;45588;51.598;5.618;2023-11-21T04:27:38;37.83;;;12.82;;
59728;SDS011;45588;51.598;5.618;2023-11-21T04:30:03;40.13;;;12.75;;
59728;SDS011;45588;51.598;5.618;2023-11-21T04:32:28;42.53;;;13.85;;
59728;SDS011;45588;51.598;5.618;2023-11-21T04:34:53;36.43;;;13.40;;
59728;SDS011;45588;51.598;5.618;2023-11-21T04:37:19;44.13;;;13.17;;
59728;SDS011;45588;51.598;5.618;2023-11-21T04:39:44;49.22;;;14.25;;
59728;SDS011;45588;51.598;5.618;2023-11-21T04:42:09;32.87;;;12.93;;
59728;SDS011;45588;51.598;5.618;2023-11-21T04:44:34;28.40;;;12.80;;
59728;SDS011;45588;51.598;5.618;2023-11-21T04:46:59;29.13;;;13.00;;
59728;SDS011;45588;51.598;5.618;2023-11-21T04:49:24;46.03;;;12.95;;
59728;SDS011;45588;51.598;5.618;2023-11-21T04:51:50;39.83;;;13.37;;
59728;SDS011;45588;51.598;5.618;2023-11-21T04:54:15;21.83;;;13.07;;
59728;SDS011;45588;51.598;5.618;2023-11-21T04:56:40;43.70;;;14.23;;
59728;SDS011;45588;51.598;5.618;2023-11-21T04:59:05;35.53;;;13.63;;
59728;SDS011;45588;51.598;5.618;2023-11-21T05:01:30;21.57;;;12.23;;
59728;SDS011;45588;51.598;5.618;2023-11-21T05:03:55;28.58;;;13.75;;
59728;SDS011;45588;51.598;5.618;2023-11-21T05:06:22;23.73;;;13.15;;
59728;SDS011;45588;51.598;5.618;2023-11-21T05:08:48;24.45;;;12.50;;
59728;SDS011;45588;51.598;5.618;2023-11-21T05:11:22;38.33;;;13.32;;
59728;SDS011;45588;51.598;5.618;2023-11-21T05:13:48;25.75;;;13.40;;
59728;SDS011;45588;51.598;5.618;2023-11-21T05:16:13;45.33;;;13.55;;
59728;SDS011;45588;51.598;5.618;2023-11-21T05:18:39;24.83;;;14.48;;
59728;SDS011;45588;51.598;5.618;2023-11-21T05:21:05;36.03;;;15.48;;
59728;SDS011;45588;51.598;5.618;2023-11-21T05:23:30;33.92;;;14.27;;
59728;SDS011;45588;51.598;5.618;2023-11-21T05:25:55;22.27;;;13.87;;
59728;SDS011;45588;51.598;5.618;2023-11-21T05:28:22;40.33;;;14.02;;
59728;SDS011;45588;51.598;5.618;2023-11-21T05:30:47;26.47;;;14.17;;
59728;SDS011;45588;51.598;5.618;2023-11-21T05:33:12;25.80;;;14.97;;
59728;SDS011;45588;51.598;5.618;2023-11-21T05:35:37;21.02;;;14.35;;
59728;SDS011;45588;51.598;5.618;2023-11-21T05:38:02;22.40;;;14.98;;
59728;SDS011;45588;51.598;5.618;2023-11-21T05:40:27;27.35;;;14.00;;
59728;SDS011;45588;51.598;5.618;2023-11-21T05:42:55;24.00;;;13.98;;
59728;SDS011;45588;51.598;5.618;2023-11-21T05:45:20;24.50;;;13.73;;
59728;SDS011;45588;51.598;5.618;2023-11-21T05:47:46;28.92;;;16.10;;
59728;SDS011;45588;51.598;5.618;2023-11-21T05:50:12;28.67;;;16.25;;
59728;SDS011;45588;51.598;5.618;2023-11-21T05:52:39;25.63;;;15.85;;
59728;SDS011;45588;51.598;5.618;2023-11-21T05:55:05;25.05;;;16.58;;
59728;SDS011;45588;51.598;5.618;2023-11-21T05:57:32;30.20;;;17.05;;
59728;SDS011;45588;51.598;5.618;2023-11-21T05:59:57;28.55;;;16.58;;
59728;SDS011;45588;51.598;5.618;2023-11-21T06:02:22;25.63;;;15.50;;
59728;SDS011;45588;51.598;5.618;2023-11-21T06:04:47;30.40;;;15.43;;
59728;SDS011;45588;51.598;5.618;2023-11-21T06:07:13;27.50;;;15.48;;
59728;SDS011;45588;51.598;5.618;2023-11-21T06:09:38;27.52;;;16.17;;
59728;SDS011;45588;51.598;5.618;2023-11-21T06:12:03;24.83;;;15.57;;
59728;SDS011;45588;51.598;5.618;2023-11-21T06:14:29;26.42;;;15.40;;
59728;SDS011;45588;51.598;5.618;2023-11-21T06:16:54;27.27;;;15.85;;
59728;SDS011;45588;51.598;5.618;2023-11-21T06:19:21;28.02;;;17.33;;
59728;SDS011;45588;51.598;5.618;2023-11-21T06:21:46;32.70;;;16.90;;
59728;SDS011;45588;51.598;5.618;2023-11-21T06:24:12;31.38;;;17.15;;
59728;SDS011;45588;51.598;5.618;2023-11-21T06:26:37;29.48;;;16.88;;
59728;SDS011;45588;51.598;5.618;2023-11-21T06:29:02;30.00;;;17.00;;
59728;SDS011;45588;51.598;5.618;2023-11-21T06:31:29;29.17;;;15.85;;
59728;SDS011;45588;51.598;5.618;2023-11-21T06:33:54;30.75;;;17.05;;
59728;SDS011;45588;51.598;5.618;2023-11-21T06:36:19;29.60;;;15.55;;
59728;SDS011;45588;51.598;5.618;2023-11-21T06:38:44;25.95;;;15.88;;
59728;SDS011;45588;51.598;5.618;2023-11-21T06:41:10;30.83;;;16.02;;
59728;SDS011;45588;51.598;5.618;2023-11-21T06:43:36;32.78;;;17.30;;
59728;SDS011;45588;51.598;5.618;2023-11-21T06:46:01;31.47;;;16.07;;
59728;SDS011;45588;51.598;5.618;2023-11-21T06:48:26;31.70;;;16.00;;
59728;SDS011;45588;51.598;5.618;2023-11-21T06:50:51;38.13;;;18.23;;
59728;SDS011;45588;51.598;5.618;2023-11-21T06:53:17;34.50;;;17.83;;
59728;SDS011;45588;51.598;5.618;2023-11-21T06:55:42;33.63;;;16.23;;
59728;SDS011;45588;51.598;5.618;2023-11-21T06:58:07;36.10;;;16.40;;
59728;SDS011;45588;51.598;5.618;2023-11-21T07:00:32;34.73;;;16.77;;
59728;SDS011;45588;51.598;5.618;2023-11-21T07:02:58;29.20;;;15.55;;
59728;SDS011;45588;51.598;5.618;2023-11-21T07:05:23;36.75;;;18.20;;
59728;SDS011;45588;51.598;5.618;2023-11-21T07:07:49;35.03;;;17.03;;
59728;SDS011;45588;51.598;5.618;2023-11-21T07:10:14;36.22;;;16.13;;
59728;SDS011;45588;51.598;5.618;2023-11-21T07:12:40;37.50;;;16.05;;
59728;SDS011;45588;51.598;5.618;2023-11-21T07:15:05;34.00;;;16.35;;
59728;SDS011;45588;51.598;5.618;2023-11-21T07:17:34;29.17;;;15.30;;
59728;SDS011;45588;51.598;5.618;2023-11-21T07:20:00;36.85;;;16.95;;
59728;SDS011;45588;51.598;5.618;2023-11-21T07:22:25;32.80;;;15.98;;
59728;SDS011;45588;51.598;5.618;2023-11-21T07:24:50;39.08;;;17.65;;
59728;SDS011;45588;51.598;5.618;2023-11-21T07:27:19;37.17;;;16.33;;
59728;SDS011;45588;51.598;5.618;2023-11-21T07:29:44;37.67;;;16.80;;
59728;SDS011;45588;51.598;5.618;2023-11-21T07:32:09;40.67;;;15.32;;
59728;SDS011;45588;51.598;5.618;2023-11-21T07:34:35;29.92;;;16.02;;
59728;SDS011;45588;51.598;5.618;2023-11-21T07:37:01;31.05;;;15.35;;
59728;SDS011;45588;51.598;5.618;2023-11-21T07:39:26;37.47;;;16.05;;
59728;SDS011;45588;51.598;5.618;2023-11-21T07:41:51;31.80;;;15.33;;
59728;SDS011;45588;51.598;5.618;2023-11-21T07:44:16;28.20;;;14.93;;
59728;SDS011;45588;51.598;5.618;2023-11-21T07:46:45;29.92;;;15.88;;
59728;SDS011;45588;51.598;5.618;2023-11-21T07:49:10;32.60;;;15.35;;
59728;SDS011;45588;51.598;5.618;2023-11-21T07:51:35;32.75;;;16.60;;
59728;SDS011;45588;51.598;5.618;2023-11-21T07:54:00;32.27;;;14.97;;
59728;SDS011;45588;51.598;5.618;2023-11-21T07:56:26;34.73;;;16.20;;
59728;SDS011;45588;51.598;5.618;2023-11-21T07:58:51;34.13;;;17.15;;
59728;SDS011;45588;51.598;5.618;2023-11-21T08:01:17;36.83;;;16.95;;
59728;SDS011;45588;51.598;5.618;2023-11-21T08:03:42;35.80;;;18.00;;
59728;SDS011;45588;51.598;5.618;2023-11-21T08:06:09;34.90;;;15.93;;
59728;SDS011;45588;51.598;5.618;2023-11-21T08:08:34;35.42;;;16.30;;
59728;SDS011;45588;51.598;5.618;2023-11-21T08:10:59;30.45;;;15.38;;
59728;SDS011;45588;51.598;5.618;2023-11-21T08:13:26;37.95;;;15.55;;
59728;SDS011;45588;51.598;5.618;2023-11-21T08:15:55;34.85;;;16.38;;
59728;SDS011;45588;51.598;5.618;2023-11-21T08:18:27;33.55;;;16.45;;
59728;SDS011;45588;51.598;5.618;2023-11-21T08:20:54;28.05;;;15.75;;
59728;SDS011;45588;51.598;5.618;2023-11-21T08:23:20;31.95;;;15.50;;
59728;SDS011;45588;51.598;5.618;2023-11-21T08:25:45;28.60;;;14.98;;
59728;SDS011;45588;51.598;5.618;2023-11-21T08:28:11;29.23;;;16.25;;
59728;SDS011;45588;51.598;5.618;2023-11-21T08:30:36;33.13;;;15.10;;
59728;SDS011;45588;51.598;5.618;2023-11-21T08:33:01;32.90;;;15.60;;
59728;SDS011;45588;51.598;5.618;2023-11-21T08:35:28;28.63;;;15.27;;
59728;SDS011;45588;51.598;5.618;2023-11-21T08:37:53;32.53;;;16.15;;
59728;SDS011;45588;51.598;5.618;2023-11-21T08:40:19;27.25;;;14.00;;
59728;SDS011;45588;51.598;5.618;2023-11-21T08:42:45;35.88;;;16.08;;
59728;SDS011;45588;51.598;5.618;2023-11-21T08:45:11;37.70;;;16.33;;
59728;SDS011;45588;51.598;5.618;2023-11-21T08:47:36;34.38;;;17.48;;
59728;SDS011;45588;51.598;5.618;2023-11-21T08:50:01;36.90;;;17.40;;
59728;SDS011;45588;51.598;5.618;2023-11-21T08:52:26;36.90;;;19.80;;
59728;SDS011;45588;51.598;5.618;2023-11-21T08:54:52;41.55;;;19.23;;
59728;SDS011;45588;51.598;5.618;2023-11-21T08:57:21;38.53;;;17.95;;
59728;SDS011;45588;51.598;5.618;2023-11-21T08:59:46;36.65;;;16.83;;
59728;SDS011;45588;51.598;5.618;2023-11-21T09:02:12;39.93;;;18.13;;
59728;SDS011;45588;51.598;5.618;2023-11-21T09:04:37;44.27;;;17.97;;
59728;SDS011;45588;51.598;5.618;2023-11-21T09:07:03;39.17;;;16.40;;
59728;SDS011;45588;51.598;5.618;2023-11-21T09:09:28;39.38;;;16.23;;
59728;SDS011;45588;51.598;5.618;2023-11-21T09:11:54;40.83;;;17.58;;
59728;SDS011;45588;51.598;5.618;2023-11-21T09:14:20;46.60;;;20.83;;
59728;SDS011;45588;51.598;5.618;2023-11-21T09:16:45;40.70;;;17.02;;
59728;SDS011;45588;51.598;5.618;2023-11-21T09:19:10;41.10;;;17.02;;
59728;SDS011;45588;51.598;5.618;2023-11-21T09:21:36;50.30;;;21.00;;
59728;SDS011;45588;51.598;5.618;2023-11-21T09:24:02;51.58;;;19.63;;
59728;SDS011;45588;51.598;5.618;2023-11-21T09:26:28;52.47;;;19.73;;
59728;SDS011;45588;51.598;5.618;2023-11-21T09:28:54;48.78;;;20.80;;
59728;SDS011;45588;51.598;5.618;2023-11-21T09:31:21;57.55;;;21.75;;
59728;SDS011;45588;51.598;5.618;2023-11-21T09:33:47;55.95;;;19.33;;
59728;SDS011;45588;51.598;5.618;2023-11-21T09:36:13;48.72;;;20.38;;
59728;SDS011;45588;51.598;5.618;2023-11-21T09:38:41;51.20;;;20.23;;
59728;SDS011;45588;51.598;5.618;2023-11-21T09:41:13;53.95;;;20.80;;
59728;SDS011;45588;51.598;5.618;2023-11-21T09:43:42;58.28;;;22.40;;
59728;SDS011;45588;51.598;5.618;2023-11-21T09:46:07;45.80;;;20.83;;
59728;SDS011;45588;51.598;5.618;2023-11-21T09:48:35;47.97;;;19.80;;
59728;SDS011;45588;51.598;5.618;2023-11-21T09:51:01;48.25;;;20.13;;
59728;SDS011;45588;51.598;5.618;2023-11-21T09:53:28;56.70;;;21.13;;
59728;SDS011;45588;51.598;5.618;2023-11-21T09:55:56;51.42;;;21.17;;
59728;SDS011;45588;51.598;5.618;2023-11-21T09:58:21;52.63;;;22.27;;
59728;SDS011;45588;51.598;5.618;2023-11-21T10:00:48;48.97;;;21.05;;
59728;SDS011;45588;51.598;5.618;2023-11-21T10:03:14;64.35;;;23.40;;
59728;SDS011;45588;51.598;5.618;2023-11-21T10:05:40;55.83;;;21.23;;
59728;SDS011;45588;51.598;5.618;2023-11-21T10:08:07;51.63;;;21.60;;
59728;SDS011;45588;51.598;5.618;2023-11-21T10:10:32;50.28;;;21.30;;
59728;SDS011;45588;51.598;5.618;2023-11-21T10:13:00;47.13;;;21.20;;
59728;SDS011;45588;51.598;5.618;2023-11-21T10:15:27;48.13;;;20.80;;
59728;SDS011;45588;51.598;5.618;2023-11-21T10:17:53;55.60;;;20.65;;
59728;SDS011;45588;51.598;5.618;2023-11-21T10:20:19;50.45;;;21.88;;
59728;SDS011;45588;51.598;5.618;2023-11-21T10:22:45;53.80;;;21.77;;
59728;SDS011;45588;51.598;5.618;2023-11-21T10:25:11;59.67;;;21.10;;
59728;SDS011;45588;51.598;5.618;2023-11-21T10:27:39;60.38;;;21.90;;
59728;SDS011;45588;51.598;5.618;2023-11-21T10:30:05;54.17;;;21.52;;
59728;SDS011;45588;51.598;5.618;2023-11-21T10:32:30;53.13;;;21.75;;
59728;SDS011;45588;51.598;5.618;2023-11-21T10:34:57;53.13;;;21.27;;
59728;SDS011;45588;51.598;5.618;2023-11-21T10:37:23;54.92;;;20.77;;
59728;SDS011;45588;51.598;5.618;2023-11-21T10:39:48;51.85;;;20.45;;
59728;SDS011;45588;51.598;5.618;2023-11-21T10:42:13;59.13;;;22.63;;
59728;SDS011;45588;51.598;5.618;2023-11-21T10:44:38;56.77;;;22.00;;
59728;SDS011;45588;51.598;5.618;2023-11-21T10:47:06;55.97;;;22.05;;
59728;SDS011;45588;51.598;5.618;2023-11-21T10:49:33;56.03;;;20.92;;
59728;SDS011;45588;51.598;5.618;2023-11-21T10:51:59;51.93;;;22.90;;
59728;SDS011;45588;51.598;5.618;2023-11-21T10:54:24;51.75;;;21.35;;
59728;SDS011;45588;51.598;5.618;2023-11-21T10:56:53;61.58;;;24.67;;
59728;SDS011;45588;51.598;5.618;2023-11-21T10:59:21;63.53;;;24.92;;
59728;SDS011;45588;51.598;5.618;2023-11-21T11:01:50;59.72;;;23.25;;
59728;SDS011;45588;51.598;5.618;2023-11-21T11:04:17;54.03;;;22.42;;
59728;SDS011;45588;51.598;5.618;2023-11-21T11:06:43;55.05;;;23.75;;
59728;SDS011;45588;51.598;5.618;2023-11-21T11:09:09;51.72;;;20.95;;
59728;SDS011;45588;51.598;5.618;2023-11-21T11:11:37;54.67;;;24.35;;
59728;SDS011;45588;51.598;5.618;2023-11-21T11:14:05;51.25;;;23.35;;
59728;SDS011;45588;51.598;5.618;2023-11-21T11:16:31;52.47;;;21.85;;
59728;SDS011;45588;51.598;5.618;2023-11-21T11:18:56;50.30;;;21.83;;
59728;SDS011;45588;51.598;5.618;2023-11-21T11:21:27;52.03;;;22.23;;
59728;SDS011;45588;51.598;5.618;2023-11-21T11:24:04;48.17;;;22.60;;
59728;SDS011;45588;51.598;5.618;2023-11-21T11:29:23;50.78;;;21.90;;
59728;SDS011;45588;51.598;5.618;2023-11-21T11:32:07;53.15;;;24.00;;
59728;SDS011;45588;51.598;5.618;2023-11-21T11:34:48;59.78;;;24.08;;
59728;SDS011;45588;51.598;5.618;2023-11-21T11:37:18;53.53;;;23.02;;
59728;SDS011;45588;51.598;5.618;2023-11-21T11:39:44;65.72;;;24.20;;
59728;SDS011;45588;51.598;5.618;2023-11-21T11:42:13;58.35;;;23.77;;
59728;SDS011;45588;51.598;5.618;2023-11-21T11:47:14;59.60;;;24.98;;
59728;SDS011;45588;51.598;5.618;2023-11-21T11:49:54;66.50;;;27.33;;
59728;SDS011;45588;51.598;5.618;2023-11-21T11:52:33;59.58;;;25.20;;
59728;SDS011;45588;51.598;5.618;2023-11-21T11:54:59;55.20;;;24.20;;
59728;SDS011;45588;51.598;5.618;2023-11-21T11:57:24;45.92;;;18.45;;
59728;SDS011;45588;51.598;5.618;2023-11-21T12:02:40;52.13;;;23.42;;
59728;SDS011;45588;51.598;5.618;2023-11-21T12:05:16;47.60;;;19.90;;
59728;SDS011;45588;51.598;5.618;2023-11-21T12:07:48;40.13;;;19.13;;
59728;SDS011;45588;51.598;5.618;2023-11-21T12:10:14;38.97;;;20.45;;
59728;SDS011;45588;51.598;5.618;2023-11-21T12:12:46;37.17;;;18.20;;
59728;SDS011;45588;51.598;5.618;2023-11-21T12:15:12;40.60;;;19.38;;
59728;SDS011;45588;51.598;5.618;2023-11-21T12:17:38;32.97;;;15.65;;
59728;SDS011;45588;51.598;5.618;2023-11-21T12:20:04;39.60;;;20.63;;
59728;SDS011;45588;51.598;5.618;2023-11-21T12:22:30;39.45;;;18.65;;
59728;SDS011;45588;51.598;5.618;2023-11-21T12:24:56;41.83;;;21.58;;
59728;SDS011;45588;51.598;5.618;2023-11-21T12:27:21;44.27;;;23.97;;
59728;SDS011;45588;51.598;5.618;2023-11-21T12:29:46;37.67;;;16.47;;
59728;SDS011;45588;51.598;5.618;2023-11-21T12:32:11;36.77;;;21.40;;
59728;SDS011;45588;51.598;5.618;2023-11-21T12:34:36;34.45;;;15.38;;
59728;SDS011;45588;51.598;5.618;2023-11-21T12:37:03;51.80;;;23.98;;
59728;SDS011;45588;51.598;5.618;2023-11-21T12:39:29;38.03;;;19.35;;
59728;SDS011;45588;51.598;5.618;2023-11-21T12:41:54;47.20;;;22.45;;
59728;SDS011;45588;51.598;5.618;2023-11-21T12:44:19;44.60;;;20.42;;
59728;SDS011;45588;51.598;5.618;2023-11-21T12:46:44;59.03;;;40.95;;
59728;SDS011;45588;51.598;5.618;2023-11-21T12:49:11;53.38;;;22.38;;
59728;SDS011;45588;51.598;5.618;2023-11-21T12:51:42;46.72;;;23.08;;
59728;SDS011;45588;51.598;5.618;2023-11-21T12:54:07;51.03;;;22.80;;
59728;SDS011;45588;51.598;5.618;2023-11-21T12:56:37;56.55;;;23.58;;
59728;SDS011;45588;51.598;5.618;2023-11-21T12:59:03;55.40;;;23.02;;
59728;SDS011;45588;51.598;5.618;2023-11-21T13:01:29;50.30;;;24.23;;
59728;SDS011;45588;51.598;5.618;2023-11-21T13:03:57;49.00;;;22.73;;
59728;SDS011;45588;51.598;5.618;2023-11-21T13:06:22;53.05;;;23.83;;
59728;SDS011;45588;51.598;5.618;2023-11-21T13:08:50;47.17;;;23.05;;
59728;SDS011;45588;51.598;5.618;2023-11-21T13:11:15;60.63;;;26.58;;
59728;SDS011;45588;51.598;5.618;2023-11-21T13:13:43;51.95;;;23.52;;
59728;SDS011;45588;51.598;5.618;2023-11-21T13:16:11;49.78;;;25.30;;
59728;SDS011;45588;51.598;5.618;2023-11-21T13:18:36;51.85;;;24.67;;
59728;SDS011;45588;51.598;5.618;2023-11-21T13:21:03;51.63;;;22.13;;
59728;SDS011;45588;51.598;5.618;2023-11-21T13:23:35;47.65;;;21.52;;
59728;SDS011;45588;51.598;5.618;2023-11-21T13:26:01;49.22;;;23.83;;
59728;SDS011;45588;51.598;5.618;2023-11-21T13:28:29;51.25;;;27.08;;
59728;SDS011;45588;51.598;5.618;2023-11-21T13:30:57;47.60;;;24.50;;
59728;SDS011;45588;51.598;5.618;2023-11-21T13:33:27;51.88;;;23.08;;
59728;SDS011;45588;51.598;5.618;2023-11-21T13:35:53;44.38;;;21.88;;
59728;SDS011;45588;51.598;5.618;2023-11-21T13:38:18;43.72;;;20.40;;
59728;SDS011;45588;51.598;5.618;2023-11-21T13:40:52;54.42;;;26.85;;
59728;SDS011;45588;51.598;5.618;2023-11-21T13:43:19;44.03;;;21.63;;
59728;SDS011;45588;51.598;5.618;2023-11-21T13:45:46;42.35;;;19.17;;
59728;SDS011;45588;51.598;5.618;2023-11-21T13:48:11;41.70;;;18.17;;
59728;SDS011;45588;51.598;5.618;2023-11-21T13:50:39;40.95;;;20.42;;
59728;SDS011;45588;51.598;5.618;2023-11-21T13:53:09;39.50;;;18.13;;
59728;SDS011;45588;51.598;5.618;2023-11-21T13:55:47;31.10;;;14.27;;
59728;SDS011;45588;51.598;5.618;2023-11-21T13:58:14;41.63;;;20.08;;
59728;SDS011;45588;51.598;5.618;2023-11-21T14:00:44;33.88;;;14.98;;
59728;SDS011;45588;51.598;5.618;2023-11-21T14:03:11;31.50;;;14.82;;
59728;SDS011;45588;51.598;5.618;2023-11-21T14:05:44;25.50;;;13.15;;
59728;SDS011;45588;51.598;5.618;2023-11-21T14:08:11;29.05;;;14.48;;
59728;SDS011;45588;51.598;5.618;2023-11-21T14:10:39;28.52;;;15.10;;
59728;SDS011;45588;51.598;5.618;2023-11-21T14:13:08;29.50;;;15.43;;
59728;SDS011;45588;51.598;5.618;2023-11-21T14:15:35;32.28;;;14.32;;
59728;SDS011;45588;51.598;5.618;2023-11-21T14:18:06;30.25;;;14.05;;
59728;SDS011;45588;51.598;5.618;2023-11-21T14:20:35;27.27;;;14.00;;
59728;SDS011;45588;51.598;5.618;2023-11-21T14:23:01;24.67;;;13.40;;